Rapid Bay, Australia
Current Conditions -  °F | °C
As of 6:00 PM on Monday 20 Oct 2014 (Local Time) from YPAD Reporting Station
Clear Clear  
Wind Chill: 86°   Ceiling: Unl
Heat Index: 86°   Visibility: 6mi
Dew Point: 41°   Wind: 12mph
Humidity: 20%   Direction: 70°ENE
Pressure: 30.09"   Gusts: NA
Location:  35.53°S, 138.19°E
Report Text: YPAD 200800Z 07010KT CAVOK 30/05 Q1019 FM0800 MOD TURB BLW 3000FT
Loading
Personal Weather Stations






























Interactive Weather Map
Tropical Storm Tracking
New forecast layout! Learn more

10-Day Weather Forecast

Advertisements
Track Severe Weather on mobile